TimeEDT,TemperatureF,Dew PointF,Humidity,Sea Level PressureIn,VisibilityMPH,Wind Direction,Wind SpeedMPH,Gust SpeedMPH,PrecipitationIn,Events,Conditions,WindDirDegrees,DateUTC
12:15 AM,44.6,33.8,66,30.20,10.0,Calm,Calm,-,N/A,,Clear,0,2013-03-16 04:15:00
12:35 AM,44.6,33.8,66,30.20,10.0,Calm,Calm,-,N/A,,Clear,0,2013-03-16 04:35:00
12:55 AM,44.6,33.8,66,30.20,10.0,Calm,Calm,-,N/A,,Clear,0,2013-03-16 04:55:00
1:55 AM,42.8,33.8,70,30.19,10.0,Calm,Calm,-,N/A,,Clear,0,2013-03-16 05:55:00
2:35 AM,42.8,33.8,70,30.19,10.0,Calm,Calm,-,N/A,,Clear,0,2013-03-16 06:35:00
2:55 AM,42.8,33.8,70,30.18,10.0,Calm,Calm,-,N/A,,Clear,0,2013-03-16 06:55:00
3:15 AM,42.8,33.8,70,30.18,10.0,South,3.5,-,N/A,,Clear,190,2013-03-16 07:15:00
3:35 AM,41.0,33.8,76,30.17,10.0,South,3.5,-,N/A,,Clear,190,2013-03-16 07:35:00
3:55 AM,41.0,32.0,70,30.17,10.0,Calm,Calm,-,N/A,,Clear,0,2013-03-16 07:55:00
4:15 AM,39.2,32.0,75,30.16,10.0,Calm,Calm,-,N/A,,Clear,0,2013-03-16 08:15:00
4:35 AM,39.2,32.0,75,30.16,10.0,Calm,Calm,-,N/A,,Clear,0,2013-03-16 08:35:00
4:55 AM,39.2,32.0,75,30.15,10.0,Calm,Calm,-,N/A,,Clear,0,2013-03-16 08:55:00
5:15 AM,39.2,32.0,75,30.15,10.0,Calm,Calm,-,N/A,,Clear,0,2013-03-16 09:15:00
5:35 AM,39.2,30.2,70,30.14,10.0,Calm,Calm,-,N/A,,Clear,0,2013-03-16 09:35:00
5:55 AM,39.2,30.2,70,30.15,9.0,SSW,3.5,-,N/A,,Clear,200,2013-03-16 09:55:00
6:15 AM,39.2,30.2,70,30.15,10.0,South,3.5,-,N/A,,Clear,190,2013-03-16 10:15:00
6:35 AM,37.4,30.2,75,30.15,10.0,Calm,Calm,-,N/A,,Clear,0,2013-03-16 10:35:00
6:50 AM,37.4,30.2,75,30.16,10.0,Calm,Calm,-,N/A,,Clear,0,2013-03-16 10:50:00
7:50 AM,37.4,30.2,75,30.17,3.0,South,3.5,-,N/A,,Clear,190,2013-03-16 11:50:00
8:50 AM,46.4,37.4,71,30.17,10.0,South,5.8,-,N/A,,Clear,180,2013-03-16 12:50:00
9:50 AM,57.2,44.6,63,30.19,10.0,SSW,5.8,-,N/A,,Clear,200,2013-03-16 13:50:00
10:50 AM,64.4,46.4,52,30.18,10.0,SW,8.1,-,N/A,,Clear,220,2013-03-16 14:50:00
11:50 AM,71.6,42.8,35,30.17,10.0,WSW,8.1,-,N/A,,Clear,240,2013-03-16 15:50:00
12:50 PM,73.4,39.2,29,30.16,10.0,West,11.5,17.3,N/A,,Clear,260,2013-03-16 16:50:00
1:50 PM,75.2,35.6,24,30.13,10.0,WSW,16.1,19.6,N/A,,Clear,240,2013-03-16 17:50:00
2:50 PM,75.2,35.6,24,30.11,10.0,West,11.5,19.6,N/A,,Clear,260,2013-03-16 18:50:00
3:50 PM,75.2,35.6,24,30.08,10.0,West,11.5,17.3,N/A,,Clear,260,2013-03-16 19:50:00
4:50 PM,75.2,33.8,22,30.08,10.0,West,12.7,17.3,N/A,,Clear,260,2013-03-16 20:50:00
5:50 PM,73.4,33.8,23,30.08,10.0,WSW,12.7,-,N/A,,Clear,250,2013-03-16 21:50:00
6:50 PM,69.8,33.8,27,30.08,10.0,West,12.7,17.3,N/A,,Clear,260,2013-03-16 22:50:00
8:15 PM,62.6,33.8,34,30.09,10.0,WSW,6.9,-,N/A,,Clear,240,2013-03-17 00:15:00
8:35 PM,59.0,32.0,36,30.09,10.0,SW,5.8,-,N/A,,Clear,220,2013-03-17 00:35:00
8:55 PM,59.0,33.8,39,30.10,10.0,SW,5.8,-,N/A,,Clear,220,2013-03-17 00:55:00
9:15 PM,57.2,33.8,41,30.10,10.0,SW,5.8,-,N/A,,Clear,230,2013-03-17 01:15:00
9:35 PM,57.2,33.8,41,30.10,10.0,WSW,3.5,-,N/A,,Clear,240,2013-03-17 01:35:00
9:55 PM,55.4,33.8,44,30.11,10.0,SSW,3.5,-,N/A,,Clear,200,2013-03-17 01:55:00
10:15 PM,53.6,33.8,47,30.11,10.0,WNW,3.5,-,N/A,,Clear,290,2013-03-17 02:15:00
10:35 PM,51.8,33.8,50,30.12,10.0,Calm,Calm,-,N/A,,Clear,0,2013-03-17 02:35:00
10:55 PM,51.8,33.8,50,30.13,10.0,Calm,Calm,-,N/A,,Clear,0,2013-03-17 02:55:00
11:15 PM,51.8,33.8,50,30.13,10.0,South,4.6,-,N/A,,Clear,190,2013-03-17 03:15:00
11:35 PM,51.8,35.6,54,30.13,10.0,South,5.8,-,N/A,,Clear,190,2013-03-17 03:35:00
11:55 PM,51.8,37.4,58,30.13,10.0,SW,3.5,-,N/A,,Clear,220,2013-03-17 03:55:00